Time;durP1;ratioP1;P1;durP2;ratioP2;P2;SDS_P1;SDS_P2;PMS_P1;PMS_P2;Temp;Humidity;BMP_temperature;BMP_pressure;BME280_temperature;BME280_humidity;BME280_pressure;Samples;Min_cycle;Max_cycle;Signal;HPM_P1;HPM_P2
2022/11/29 00:01:06;;;;;;;22.85;7.00;;;5.20;99.90;;;;;;5057370;28;20045;-81
2022/11/29 00:03:34;;;;;;;15.65;7.30;;;5.20;99.90;;;;;;5063695;28;20425;-81
2022/11/29 00:06:15;;;;;;;21.20;7.47;;;5.20;99.90;;;;;;5059478;28;20131;-81
2022/11/29 00:08:41;;;;;;;13.95;7.10;;;5.20;99.90;;;;;;5061239;28;20045;-81
2022/11/29 00:11:09;;;;;;;13.73;7.30;;;5.20;99.90;;;;;;5063812;28;20040;-81
2022/11/29 00:13:35;;;;;;;14.95;7.03;;;5.20;99.90;;;;;;5061074;28;20175;-81
2022/11/29 00:16:02;;;;;;;;;;;5.10;99.90;;;;;;5060581;28;20119;-80
2022/11/29 00:18:28;;;;;;;14.23;7.18;;;5.10;99.90;;;;;;5060969;28;20059;-80
2022/11/29 00:20:56;;;;;;;;;;;5.10;99.90;;;;;;5061851;28;20509;-80
2022/11/29 00:23:21;;;;;;;12.05;6.57;;;5.30;99.90;;;;;;5064015;28;19929;-80
2022/11/29 00:25:47;;;;;;;;;;;5.10;99.90;;;;;;5061350;28;20040;-81
2022/11/29 00:28:12;;;;;;;13.38;7.30;;;5.20;99.90;;;;;;5062600;28;20409;-81
2022/11/29 00:30:38;;;;;;;;;;;5.10;99.90;;;;;;5059649;28;20033;-81
2022/11/29 00:33:04;;;;;;;14.57;6.68;;;5.10;99.90;;;;;;5060156;28;21097;-81
2022/11/29 00:35:29;;;;;;;;;;;5.20;99.90;;;;;;5063573;28;20033;-82
2022/11/29 00:37:55;;;;;;;10.65;6.65;;;5.10;99.90;;;;;;5059271;28;20391;-81
2022/11/29 00:40:20;;;;;;;;;;;5.10;99.90;;;;;;5064288;28;20090;-81
2022/11/29 00:42:46;;;;;;;12.57;6.32;;;5.10;99.90;;;;;;5060022;28;20713;-81
2022/11/29 00:45:11;;;;;;;;;;;5.10;99.90;;;;;;5062917;28;20128;-81
2022/11/29 00:47:37;;;;;;;13.73;6.55;;;5.10;99.90;;;;;;5061412;28;19945;-82
2022/11/29 00:50:06;;;;;;;;;;;5.10;99.90;;;;;;5059476;28;20049;-82
2022/11/29 00:52:31;;;;;;;12.23;7.18;;;5.60;99.90;;;;;;5061346;28;19920;-82
2022/11/29 00:54:57;;;;;;;;;;;5.10;99.90;;;;;;5060920;28;20451;-82
2022/11/29 00:57:25;;;;;;;14.93;7.28;;;5.10;99.90;;;;;;5062574;28;19928;-81
2022/11/29 00:59:51;;;;;;;10.93;7.05;;;5.00;99.90;;;;;;5058532;28;20055;-81
2022/11/29 01:02:16;;;;;;;;;;;5.10;99.90;;;;;;5062347;28;20049;-80
2022/11/29 01:04:42;;;;;;;11.35;6.50;;;5.10;99.90;;;;;;5059981;28;19924;-81
2022/11/29 01:07:07;;;;;;;;;;;5.00;99.90;;;;;;5062546;28;20040;-81
2022/11/29 01:09:33;;;;;;;10.65;6.75;;;5.00;99.90;;;;;;5061551;28;19927;-81
2022/11/29 01:11:58;;;;;;;;;;;5.10;99.90;;;;;;5058413;28;20048;-81
2022/11/29 01:14:24;;;;;;;9.90;6.43;;;5.10;99.90;;;;;;5060036;28;19970;-81
2022/11/29 01:16:49;;;;;;;;;;;5.00;99.90;;;;;;5063438;28;20384;-81
2022/11/29 01:19:15;;;;;;;10.80;7.07;;;5.00;99.90;;;;;;5059603;28;19920;-82
2022/11/29 01:21:41;;;;;;;;;;;5.00;99.90;;;;;;5062771;28;20044;-82
2022/11/29 01:24:06;;;;;;;11.02;6.28;;;5.00;99.90;;;;;;5061349;28;20467;-81
2022/11/29 01:26:32;;;;;;;;;;;5.10;99.90;;;;;;5059410;28;20065;-81
2022/11/29 01:29:04;;;;;;;12.32;6.95;;;5.00;99.90;;;;;;5061155;28;19936;-81
2022/11/29 01:31:34;;;;;;;10.85;6.80;;;5.00;99.90;;;;;;5061084;28;20044;-80
2022/11/29 01:34:02;;;;;;;11.13;6.57;;;5.10;99.90;;;;;;5059724;28;20490;-81
2022/11/29 01:36:27;;;;;;;12.13;7.43;;;5.10;99.90;;;;;;5060748;28;20037;-81
2022/11/29 01:38:53;;;;;;;;;;;5.20;99.90;;;;;;5062266;28;20946;-81
2022/11/29 01:41:24;;;;;;;11.10;7.57;;;5.20;99.90;;;;;;5060070;28;19921;-81
2022/11/29 01:43:53;;;;;;;10.48;6.40;;;5.10;99.90;;;;;;5063117;28;20048;-81
2022/11/29 01:46:19;;;;;;;10.93;6.57;;;5.10;99.90;;;;;;5062340;28;20086;-81
2022/11/29 01:48:45;;;;;;;;;;;5.10;99.90;;;;;;5059873;28;20061;-80
2022/11/29 01:51:10;;;;;;;12.00;7.05;;;5.10;99.90;;;;;;5062000;28;20379;-81
2022/11/29 01:53:37;;;;;;;;;;;5.20;99.90;;;;;;5059324;28;20037;-81
2022/11/29 01:56:04;;;;;;;14.02;7.25;;;5.20;99.90;;;;;;5060345;28;19927;-80
2022/11/29 01:58:31;;;;;;;12.27;6.80;;;5.20;99.90;;;;;;5060783;28;20442;-80
2022/11/29 02:00:59;;;;;;;11.38;6.70;;;5.20;99.90;;;;;;5059948;28;20385;-79
2022/11/29 02:03:25;;;;;;;12.95;7.18;;;5.20;99.90;;;;;;5061431;28;20103;-80
2022/11/29 02:05:51;;;;;;;;;;;5.20;99.90;;;;;;5059246;28;20045;-80
2022/11/29 02:08:38;;;;;;;11.48;7.22;;;5.20;99.90;;;;;;5061022;28;19985;-80
2022/11/29 02:11:04;;;;;;;10.15;6.63;;;5.10;99.90;;;;;;5063930;28;20063;-80
2022/11/29 02:13:38;;;;;;;;;;;5.10;99.90;;;;;;5064444;28;20045;-80
2022/11/29 02:16:16;;;;;;;12.88;7.00;;;5.10;99.90;;;;;;5063645;28;19949;-80
2022/11/29 02:18:44;;;;;;;12.18;7.00;;;5.10;99.90;;;;;;5063566;28;20048;-80
2022/11/29 02:21:16;;;;;;;11.18;6.90;;;5.10;99.90;;;;;;5061543;28;20056;-80
2022/11/29 02:23:41;;;;;;;13.27;7.32;;;5.10;99.90;;;;;;5061303;28;20107;-80
2022/11/29 02:26:16;;;;;;;;;;;5.00;99.90;;;;;;5064833;28;20048;-80
2022/11/29 02:28:54;;;;;;;10.40;6.68;;;5.10;99.90;;;;;;5060743;28;19931;-80
2022/11/29 02:31:59;;;;;;;12.15;6.60;;;5.10;99.90;;;;;;5063474;28;20044;-80
2022/11/29 02:34:49;;;;;;;10.52;6.32;;;5.10;99.90;;;;;;5064713;28;20492;-81
2022/11/29 02:37:37;;;;;;;9.40;5.88;;;5.10;99.90;;;;;;5061775;28;20094;-80
2022/11/29 02:40:30;;;;;;;13.48;6.03;;;5.10;99.90;;;;;;5061758;28;20138;-81
2022/11/29 02:43:38;;;;;;;12.02;6.40;;;5.00;99.90;;;;;;5063044;28;20044;-81
2022/11/29 02:46:19;;;;;;;12.35;5.85;;;4.90;99.90;;;;;;5061799;28;20052;-80
2022/11/29 02:48:50;;;;;;;10.50;6.32;;;4.90;99.90;;;;;;5062946;28;20045;-80
2022/11/29 02:51:22;;;;;;;12.55;6.80;;;4.80;99.90;;;;;;5064033;28;20044;-80
2022/11/29 02:53:56;;;;;;;10.70;6.30;;;4.80;99.90;;;;;;5064067;28;20040;-80
2022/11/29 02:56:38;;;;;;;10.07;6.00;;;4.80;99.90;;;;;;5062651;28;20447;-79
2022/11/29 02:59:26;;;;;;;13.77;6.50;;;4.80;99.90;;;;;;5062192;28;20106;-80
2022/11/29 03:02:13;;;;;;;14.07;7.07;;;4.80;99.90;;;;;;5065480;28;20051;-79
2022/11/29 03:04:53;;;;;;;14.50;6.47;;;4.80;99.90;;;;;;5060172;28;20041;-80
2022/11/29 03:07:30;;;;;;;17.10;5.95;;;4.80;99.90;;;;;;5063604;28;20051;-80
2022/11/29 03:10:15;;;;;;;12.05;5.88;;;4.80;99.90;;;;;;5063746;28;20039;-80
2022/11/29 03:12:46;;;;;;;14.43;6.03;;;4.70;99.90;;;;;;5064090;28;20036;-80
2022/11/29 03:15:30;;;;;;;24.65;6.05;;;4.70;99.90;;;;;;5062852;28;20041;-80
2022/11/29 03:18:15;;;;;;;11.52;5.95;;;4.80;99.90;;;;;;5061397;28;20042;-79
2022/11/29 03:21:12;;;;;;;10.23;5.93;;;4.70;99.90;;;;;;5060990;28;20048;-79
2022/11/29 03:23:55;;;;;;;8.75;5.82;;;4.70;99.90;;;;;;5060848;28;20378;-79
2022/11/29 03:26:34;;;;;;;9.00;5.93;;;4.90;99.90;;;;;;5062163;28;20138;-79
2022/11/29 03:29:12;;;;;;;11.55;5.70;;;4.70;99.90;;;;;;5081508;28;20115;-79
2022/11/29 03:31:50;;;;;;;8.45;5.88;;;4.70;99.90;;;;;;5080278;28;20048;-80
2022/11/29 03:34:41;;;;;;;10.65;6.22;;;4.60;99.90;;;;;;5062562;28;20135;-80
2022/11/29 03:37:24;;;;;;;8.73;5.63;;;4.60;99.90;;;;;;5062848;28;20068;-80
2022/11/29 03:39:58;;;;;;;9.43;5.63;;;4.60;99.90;;;;;;5060906;28;20542;-80
2022/11/29 03:42:30;;;;;;;9.20;5.72;;;4.60;99.90;;;;;;5083698;28;20044;-81
2022/11/29 03:45:10;;;;;;;8.43;5.00;;;4.60;99.90;;;;;;5062558;28;20116;-80
2022/11/29 03:47:43;;;;;;;8.85;5.00;;;4.60;99.90;;;;;;5059448;28;20047;-80
2022/11/29 03:50:15;;;;;;;8.40;5.43;;;4.60;99.90;;;;;;5064400;28;20048;-80
2022/11/29 03:52:49;;;;;;;9.55;5.47;;;4.60;99.90;;;;;;5062542;28;20809;-80
2022/11/29 03:55:21;;;;;;;9.27;5.18;;;4.60;99.90;;;;;;5060712;28;20076;-80
2022/11/29 03:58:07;;;;;;;9.38;5.43;;;4.60;99.90;;;;;;5060314;28;20041;-80
2022/11/29 04:00:48;;;;;;;10.55;5.75;;;4.50;99.90;;;;;;5059758;28;20041;-80
2022/11/29 04:03:36;;;;;;;8.48;5.03;;;4.60;99.90;;;;;;5063645;28;20064;-80
2022/11/29 04:06:13;;;;;;;9.07;5.75;;;4.60;99.90;;;;;;5061652;28;20452;-80
2022/11/29 04:09:09;;;;;;;9.45;5.38;;;4.60;99.90;;;;;;5062311;28;20060;-80
2022/11/29 04:11:53;;;;;;;10.15;5.32;;;4.60;99.90;;;;;;5061752;28;20072;-80
2022/11/29 04:14:43;;;;;;;10.25;6.30;;;4.70;99.90;;;;;;5057341;28;20576;-80
2022/11/29 04:17:35;;;;;;;9.85;5.38;;;4.70;99.90;;;;;;5058900;28;20522;-80
2022/11/29 04:20:41;;;;;;;8.93;5.50;;;4.70;99.90;;;;;;5061795;28;20048;-80
2022/11/29 04:23:15;;;;;;;10.02;5.10;;;4.60;99.90;;;;;;5059067;28;20090;-80
2022/11/29 04:25:53;;;;;;;9.13;5.72;;;4.70;99.90;;;;;;5059798;28;20060;-80
2022/11/29 04:29:10;;;;;;;10.40;5.47;;;4.60;99.90;;;;;;5056788;28;20051;-80
2022/11/29 04:32:02;;;;;;;10.65;5.03;;;4.70;99.90;;;;;;5016689;28;20049;-80
2022/11/29 04:34:39;;;;;;;9.35;4.88;;;4.70;99.90;;;;;;5060004;28;20512;-79
2022/11/29 04:37:23;;;;;;;10.55;5.75;;;4.60;99.90;;;;;;5061610;28;20029;-80
2022/11/29 04:40:27;;;;;;;11.95;6.45;;;4.60;99.90;;;;;;5060325;28;20374;-80
2022/11/29 04:43:20;;;;;;;12.25;5.32;;;4.60;99.90;;;;;;5049541;28;20048;-80
2022/11/29 04:45:57;;;;;;;11.15;5.78;;;4.60;99.90;;;;;;5060011;28;20060;-79
2022/11/29 04:49:01;;;;;;;8.82;5.05;;;4.70;99.90;;;;;;5059627;28;20040;-80
2022/11/29 04:51:44;;;;;;;9.57;5.22;;;4.70;99.90;;;;;;5060103;28;20048;-79
2022/11/29 04:54:35;;;;;;;9.35;5.32;;;4.60;99.90;;;;;;5058649;28;20085;-79
2022/11/29 04:57:38;;;;;;;8.80;5.20;;;4.60;99.90;;;;;;5060816;28;20033;-80
2022/11/29 05:00:14;;;;;;;10.10;5.57;;;4.70;99.90;;;;;;5062467;28;20396;-80
2022/11/29 05:03:06;;;;;;;11.10;5.65;;;4.70;99.90;;;;;;5059867;28;20131;-80
2022/11/29 05:05:53;;;;;;;13.40;5.95;;;4.70;99.90;;;;;;5061795;28;20052;-80
2022/11/29 05:08:19;;;;;;;;;;;5.80;99.90;;;;;;5080189;28;20127;-80
2022/11/29 05:11:09;;;;;;;11.77;5.57;;;4.80;99.90;;;;;;5058171;28;20007;-80
2022/11/29 05:13:51;;;;;;;7.72;4.63;;;4.80;99.90;;;;;;5059224;28;20059;-79
2022/11/29 05:16:23;;;;;;;12.07;6.05;;;4.70;99.90;;;;;;5063484;28;20044;-80
2022/11/29 05:19:16;;;;;;;12.82;5.00;;;4.70;99.90;;;;;;5060249;28;20041;-80
2022/11/29 05:22:13;;;;;;;12.65;5.45;;;4.70;99.90;;;;;;5058542;28;20051;-80
2022/11/29 05:25:07;;;;;;;10.30;5.35;;;4.70;99.90;;;;;;5058558;28;20053;-79
2022/11/29 05:27:42;;;;;;;7.65;4.72;;;5.30;99.90;;;;;;5024536;28;20053;-80
2022/11/29 05:30:12;;;;;;;11.07;4.95;;;4.60;99.90;;;;;;5058563;28;20037;-80
2022/11/29 05:32:41;;;;;;;10.65;5.40;;;4.60;99.90;;;;;;5058402;28;20120;-80
2022/11/29 05:35:39;;;;;;;13.73;5.68;;;4.60;99.90;;;;;;5058325;28;20056;-80
2022/11/29 05:38:29;;;;;;;11.45;4.93;;;4.60;99.90;;;;;;5057862;28;20077;-80
2022/11/29 05:41:05;;;;;;;10.65;5.35;;;4.50;99.90;;;;;;5058947;28;20036;-80
2022/11/29 05:43:44;;;;;;;;;;;4.50;99.90;;;;;;5064542;28;20079;-81
2022/11/29 05:46:13;;;;;;;15.85;5.10;;;4.50;99.90;;;;;;5065016;28;19929;-79
2022/11/29 05:48:45;;;;;;;11.68;5.38;;;4.50;99.90;;;;;;5063364;28;20128;-80
2022/11/29 05:51:21;;;;;;;12.95;4.45;;;4.70;99.90;;;;;;5064887;28;20077;-75
2022/11/29 05:53:53;;;;;;;;;;;4.50;99.90;;;;;;5065930;28;20918;-82
2022/11/29 05:56:40;;;;;;;12.60;6.28;;;4.50;99.90;;;;;;5065398;28;19927;-83
2022/11/29 05:59:14;;;;;;;11.25;6.13;;;4.40;99.90;;;;;;5065870;28;20135;-83
2022/11/29 06:01:47;;;;;;;12.45;4.97;;;4.40;99.90;;;;;;5065193;28;20044;-76
2022/11/29 06:04:35;;;;;;;12.65;5.30;;;4.40;99.90;;;;;;5066774;28;20059;-80
2022/11/29 06:07:36;;;;;;;13.55;6.18;;;4.40;99.90;;;;;;5066173;28;20123;-77
2022/11/29 06:10:02;;;;;;;21.30;7.38;;;;;;;;;;5062381;28;20444;-85
2022/11/29 06:12:34;;;;;;;19.88;7.82;;;4.40;99.90;;;;;;5065071;28;20094;-82
2022/11/29 06:15:26;;;;;;;15.02;5.47;;;4.40;99.90;;;;;;5061172;28;20049;-81
2022/11/29 06:17:58;;;;;;;17.55;5.53;;;4.30;99.90;;;;;;5064411;28;20072;-74
2022/11/29 06:20:42;;;;;;;21.38;8.88;;;4.40;99.90;;;;;;5062169;28;20056;-76
2022/11/29 06:23:56;;;;;;;23.90;9.80;;;4.40;99.90;;;;;;5064447;28;20045;-78
2022/11/29 06:26:28;;;;;;;19.45;8.95;;;4.50;99.90;;;;;;5066708;28;20388;-82
2022/11/29 06:28:56;;;;;;;23.50;9.43;;;4.80;99.90;;;;;;5065101;28;20045;-84
2022/11/29 06:31:31;;;;;;;19.00;8.13;;;4.60;99.90;;;;;;5062940;28;20041;-87
2022/11/29 06:34:09;;;;;;;19.65;8.23;;;4.60;99.90;;;;;;5060469;28;20170;-84
2022/11/29 06:36:52;;;;;;;15.40;7.30;;;4.60;99.90;;;;;;5061982;28;20049;-73
2022/11/29 06:39:18;;;;;;;10.93;5.25;;;4.60;99.90;;;;;;5066618;28;20036;-82
2022/11/29 06:41:44;;;;;;;;;;;4.60;99.90;;;;;;5062502;28;20496;-78
2022/11/29 06:44:10;;;;;;;8.98;4.70;;;4.60;99.90;;;;;;5062794;28;20343;-88
2022/11/29 06:47:00;;;;;;;13.57;5.35;;;4.60;99.90;;;;;;5065602;28;20040;-87
2022/11/29 06:49:28;;;;;;;10.55;5.38;;;4.60;99.90;;;;;;5063345;28;20068;-83
2022/11/29 06:52:27;;;;;;;9.98;4.50;;;4.60;99.90;;;;;;5061410;28;20045;-89
2022/11/29 06:55:31;;;;;;;12.77;4.80;;;4.60;99.90;;;;;;5064711;28;20045;-78
2022/11/29 06:58:15;;;;;;;13.93;4.88;;;4.60;99.90;;;;;;5045518;28;20052;-82
2022/11/29 07:01:02;;;;;;;12.27;4.85;;;4.60;99.90;;;;;;5066382;28;20049;-74
2022/11/29 07:04:01;;;;;;;10.98;4.95;;;4.60;99.90;;;;;;5065027;28;20138;-73
2022/11/29 07:06:28;;;;;;;10.68;4.63;;;4.50;99.90;;;;;;5060990;28;20056;-75
2022/11/29 07:09:08;;;;;;;9.98;4.60;;;4.50;99.90;;;;;;5064414;28;20106;-73
2022/11/29 07:11:34;;;;;;;16.33;5.40;;;4.50;99.90;;;;;;5065878;28;20069;-73
2022/11/29 07:14:00;;;;;;;;;;;4.50;99.90;;;;;;5065544;28;20115;-80
2022/11/29 07:16:53;;;;;;;11.02;5.40;;;4.50;99.90;;;;;;5058692;28;19920;-79
2022/11/29 07:19:33;;;;;;;13.98;6.20;;;4.50;99.90;;;;;;5060256;28;20048;-78
2022/11/29 07:22:27;;;;;;;12.70;4.60;;;4.40;99.90;;;;;;5063179;28;20116;-77
2022/11/29 07:25:21;;;;;;;14.82;4.40;;;4.50;99.90;;;;;;5060338;28;20044;-77
2022/11/29 07:28:21;;;;;;;19.70;4.90;;;4.50;99.90;;;;;;5054419;28;20664;-77
2022/11/29 07:31:15;;;;;;;13.15;4.60;;;4.50;99.90;;;;;;5058951;28;20091;-74
2022/11/29 07:34:07;;;;;;;11.77;4.03;;;4.60;99.90;;;;;;5061294;28;20044;-75
2022/11/29 07:36:49;;;;;;;11.65;4.13;;;4.70;99.90;;;;;;5059615;28;20049;-78
2022/11/29 07:39:43;;;;;;;12.13;3.92;;;5.50;99.90;;;;;;5060321;28;20036;-78
2022/11/29 07:42:24;;;;;;;17.58;3.88;;;5.00;99.90;;;;;;5046276;28;20079;-78
2022/11/29 07:44:56;;;;;;;15.90;4.22;;;5.10;99.90;;;;;;5061060;28;20037;-78
2022/11/29 07:47:21;;;;;;;14.93;3.90;;;5.20;99.90;;;;;;5068757;28;20045;-78
2022/11/29 07:49:47;;;;;;;;;;;5.30;99.90;;;;;;5063511;28;20089;-78
2022/11/29 07:52:15;;;;;;;11.73;4.00;;;5.50;99.90;;;;;;5059262;28;20322;-78
2022/11/29 07:54:41;;;;;;;15.82;3.95;;;5.60;99.90;;;;;;5058096;28;20091;-79
2022/11/29 07:57:06;;;;;;;15.30;4.10;;;6.50;99.90;;;;;;5058647;28;20044;-79
2022/11/29 07:59:32;;;;;;;;;;;6.10;99.90;;;;;;5060604;28;20518;-79
2022/11/29 08:01:58;;;;;;;16.25;4.45;;;5.90;99.90;;;;;;5060669;28;19921;-79
2022/11/29 08:04:23;;;;;;;;;;;5.90;99.90;;;;;;5060654;28;20044;-78
2022/11/29 08:06:49;;;;;;;17.08;3.75;;;6.00;99.90;;;;;;5060958;28;19924;-78
2022/11/29 08:09:14;;;;;;;;;;;6.00;99.90;;;;;;5062110;28;20123;-78
2022/11/29 08:11:40;;;;;;;11.20;3.45;;;6.00;99.90;;;;;;5064006;28;19994;-78
2022/11/29 08:14:05;;;;;;;;;;;6.20;99.90;;;;;;5059642;28;20053;-78
2022/11/29 08:16:31;;;;;;;14.05;5.47;;;6.20;99.90;;;;;;5064248;28;19917;-78
2022/11/29 08:18:57;;;;;;;;;;;6.30;99.90;;;;;;5061418;28;20436;-77
2022/11/29 08:21:23;;;;;;;17.10;5.60;;;6.30;99.90;;;;;;5061456;28;19931;-78
2022/11/29 08:23:49;;;;;;;;;;;6.90;99.90;;;;;;5061902;28;20047;-77
2022/11/29 08:26:16;;;;;;;23.23;4.95;;;6.50;99.90;;;;;;5062742;28;19920;-77
2022/11/29 08:28:42;;;;;;;18.20;4.07;;;6.60;99.90;;;;;;5059411;28;20090;-76
2022/11/29 08:31:12;;;;;;;11.90;3.42;;;6.70;99.90;;;;;;5064101;28;20048;-76
2022/11/29 08:33:40;;;;;;;15.52;3.67;;;6.80;99.90;;;;;;5059883;28;20033;-77
2022/11/29 08:36:10;;;;;;;13.98;3.65;;;6.90;99.90;;;;;;5061297;28;20376;-77
2022/11/29 08:38:36;;;;;;;16.40;3.65;;;7.10;99.90;;;;;;5061417;28;20044;-77
2022/11/29 08:41:04;;;;;;;;;;;7.20;99.90;;;;;;5060320;28;20045;-77
2022/11/29 08:43:31;;;;;;;18.38;4.07;;;7.30;99.90;;;;;;5062689;28;20318;-77
2022/11/29 08:45:57;;;;;;;11.25;3.35;;;7.30;99.90;;;;;;5062253;28;20396;-77
2022/11/29 08:48:23;;;;;;;12.68;4.50;;;7.70;99.90;;;;;;5062925;28;20157;-77
2022/11/29 08:50:49;;;;;;;;;;;7.80;99.90;;;;;;5061921;28;20127;-77
2022/11/29 08:53:40;;;;;;;14.88;3.72;;;7.90;99.90;;;;;;5067475;28;20405;-77
2022/11/29 08:56:11;;;;;;;12.07;3.60;;;7.60;99.90;;;;;;5058592;28;20167;-77
2022/11/29 08:58:37;;;;;;;12.18;4.03;;;7.80;99.90;;;;;;5058883;28;20045;-77
2022/11/29 09:01:04;;;;;;;15.45;4.60;;;7.80;99.90;;;;;;5059401;28;20481;-76
2022/11/29 09:06:16;;;;;;;18.08;3.47;;;7.90;99.90;;;;;;5061858;28;20049;-76
2022/11/29 09:08:42;;;;;;;;;;;8.00;99.90;;;;;;5062206;28;20070;-77
2022/11/29 09:11:17;;;;;;;17.83;3.95;;;8.00;99.90;;;;;;5059726;28;19920;-77
2022/11/29 09:13:44;;;;;;;19.42;3.67;;;8.10;99.90;;;;;;5060506;28;20531;-77
2022/11/29 09:16:13;;;;;;;14.45;3.90;;;8.10;99.90;;;;;;5061796;28;20040;-77
2022/11/29 09:18:40;;;;;;;14.07;3.67;;;8.20;99.90;;;;;;5058463;28;20037;-77
2022/11/29 09:21:07;;;;;;;13.70;4.00;;;8.20;99.90;;;;;;5061746;28;20408;-77
2022/11/29 09:23:34;;;;;;;15.05;3.67;;;8.30;99.90;;;;;;5060146;28;20028;-77
2022/11/29 09:26:00;;;;;;;15.68;4.60;;;8.30;99.90;;;;;;5059926;28;20069;-77
2022/11/29 09:28:25;;;;;;;;;;;8.80;99.90;;;;;;5063483;28;20110;-77
2022/11/29 09:30:54;;;;;;;14.95;4.75;;;8.40;99.90;;;;;;5058712;28;19964;-76
2022/11/29 09:33:19;;;;;;;17.42;6.28;;;8.50;99.90;;;;;;5058980;28;20135;-76
2022/11/29 09:35:45;;;;;;;;;;;8.50;99.90;;;;;;5058088;28;20139;-77
2022/11/29 09:38:12;;;;;;;18.58;5.53;;;8.50;99.90;;;;;;5058535;28;19971;-77
2022/11/29 09:40:52;;;;;;;18.92;4.88;;;8.50;99.90;;;;;;5058379;28;20048;-77
2022/11/29 09:44:04;;;;;;;18.50;8.35;;;8.60;99.90;;;;;;5060333;28;20094;-77
2022/11/29 09:46:54;;;;;;;13.50;6.13;;;8.60;99.90;;;;;;4964202;28;20034;-77
2022/11/29 09:49:38;;;;;;;14.93;4.82;;;8.70;99.90;;;;;;4965805;28;20137;-77
2022/11/29 09:52:18;;;;;;;14.48;5.20;;;8.70;99.90;;;;;;5041959;28;20049;-77
2022/11/29 09:55:06;;;;;;;19.10;6.40;;;8.70;99.90;;;;;;5056451;28;20048;-77
2022/11/29 09:57:31;;;;;;;21.45;6.68;;;8.70;99.90;;;;;;5060274;28;20045;-77
2022/11/29 10:00:00;;;;;;;;;;;8.80;99.90;;;;;;5059830;28;20041;-77
2022/11/29 10:03:08;;;;;;;18.00;6.40;;;8.80;99.90;;;;;;5063226;28;20007;-77
2022/11/29 10:06:06;;;;;;;12.15;5.78;;;8.90;99.90;;;;;;5023845;28;20060;-77
2022/11/29 10:08:57;;;;;;;12.20;4.97;;;9.00;99.90;;;;;;5056611;28;20186;-76
2022/11/29 10:11:31;;;;;;;14.15;6.13;;;9.10;99.90;;;;;;5048795;28;20061;-76
2022/11/29 10:14:04;;;;;;;12.25;4.72;;;9.50;99.90;;;;;;5058072;28;20044;-77
2022/11/29 10:16:46;;;;;;;16.27;5.30;;;9.80;99.90;;;;;;5061415;28;20473;-76
2022/11/29 10:19:20;;;;;;;18.48;5.00;;;9.10;99.90;;;;;;5060275;28;20048;-77
2022/11/29 10:21:56;;;;;;;11.98;4.00;;;10.90;99.90;;;;;;5058114;28;20067;-77
2022/11/29 10:24:23;;;;;;;12.20;3.65;;;9.30;99.90;;;;;;5058319;28;20076;-77
2022/11/29 10:26:49;;;;;;;12.10;3.95;;;9.30;99.90;;;;;;5057347;28;20175;-77
2022/11/29 10:29:17;;;;;;;;;;;9.30;99.90;;;;;;5062960;28;20115;-77
2022/11/29 10:31:45;;;;;;;;;;;9.50;99.90;;;;;;5061297;28;19928;-77
2022/11/29 10:34:15;;;;;;;;;;;9.40;99.90;;;;;;5065509;28;19920;-77
2022/11/29 10:36:43;;;;;;;;;;;9.40;99.90;;;;;;5063268;28;19920;-77
2022/11/29 10:39:17;;;;;;;;;;;9.40;99.90;;;;;;5064588;28;20019;-77
2022/11/29 10:41:46;;;;;;;;;;;9.40;99.90;;;;;;5062163;28;19927;-77
2022/11/29 10:44:13;;;;;;;;;;;9.40;99.90;;;;;;5064301;28;19924;-77
2022/11/29 10:46:39;;;;;;;;;;;9.40;99.90;;;;;;5064861;28;19920;-77
2022/11/29 10:49:08;;;;;;;;;;;9.40;99.90;;;;;;5062954;28;20276;-77
2022/11/29 10:51:34;;;;;;;;;;;9.40;99.90;;;;;;5063757;28;19921;-77
2022/11/29 10:54:23;;;;;;;;;;;9.40;99.90;;;;;;5062875;28;19920;-77
2022/11/29 10:56:49;;;;;;;;;;;9.50;99.90;;;;;;5048635;28;19921;-77
2022/11/29 10:59:18;;;;;;;;;;;10.40;99.90;;;;;;5065827;28;19926;-77
2022/11/29 11:01:44;;;;;;;;;;;9.50;99.90;;;;;;5060493;28;19982;-77
2022/11/29 11:04:36;;;;;;;;;;;9.90;99.90;;;;;;5064544;28;19954;-77
2022/11/29 11:07:02;;;;;;;;;;;9.70;99.90;;;;;;5060453;28;19927;-77
2022/11/29 11:09:36;;;;;;;;;;;9.70;99.90;;;;;;5065337;28;19916;-77
2022/11/29 11:12:07;;;;;;;;;;;9.80;99.90;;;;;;5067457;28;19928;-77
2022/11/29 11:14:39;;;;;;;;;;;9.80;99.90;;;;;;5064892;28;20042;-77
2022/11/29 11:17:18;;;;;;;;;;;9.80;99.90;;;;;;5060983;28;20034;-77
2022/11/29 11:19:53;;;;;;;;;;;9.80;99.90;;;;;;5063283;28;19966;-77
2022/11/29 11:22:20;;;;;;;;;;;9.90;99.90;;;;;;5065188;28;19927;-76
2022/11/29 11:24:54;;;;;;;;;;;10.00;99.90;;;;;;5059394;28;19927;-79
2022/11/29 11:27:33;;;;;;;;;;;10.80;99.90;;;;;;5059926;28;19972;-78
2022/11/29 11:29:59;;;;;;;;;;;10.70;99.90;;;;;;5068230;28;20390;-80
2022/11/29 11:32:25;;;;;;;;;;;11.70;99.90;;;;;;5066468;28;19921;-79
2022/11/29 11:34:52;;;;;;;;;;;11.20;99.90;;;;;;5063766;28;19921;-79
2022/11/29 11:37:17;;;;;;;;;;;11.30;99.90;;;;;;5062450;28;19938;-75
2022/11/29 11:39:47;;;;;;;;;;;11.90;99.90;;;;;;5062373;28;20411;-77
2022/11/29 11:42:36;;;;;;;;;;;13.00;99.90;;;;;;5080046;28;19927;-76
2022/11/29 11:45:08;;;;;;;;;;;13.30;99.90;;;;;;5059609;28;19928;-75
2022/11/29 11:47:35;;;;;;;;;;;14.20;99.90;;;;;;5064972;28;19920;-76
2022/11/29 11:50:03;;;;;;;;;;;14.90;99.90;;;;;;5061508;28;19921;-80
2022/11/29 11:52:35;;;;;;;;;;;15.30;99.90;;;;;;5061134;28;19921;-82
2022/11/29 11:55:04;;;;;;;;;;;15.30;99.90;;;;;;5054131;28;19921;-85
2022/11/29 11:57:30;;;;;;;;;;;15.10;99.90;;;;;;5061408;28;20375;-92
2022/11/29 11:59:56;;;;;;;;;;;15.00;99.90;;;;;;5056120;28;19929;-87
2022/11/29 12:02:26;;;;;;;;;;;14.90;99.90;;;;;;5061844;28;19920;-91
2022/11/29 12:04:55;;;;;;;;;;;14.30;99.90;;;;;;5060103;28;19921;-94
2022/11/29 12:07:27;;;;;;;;;;;13.90;99.90;;;;;;5054504;28;19921;-89
2022/11/29 12:09:59;;;;;;;;;;;13.50;99.90;;;;;;5051423;28;20304;-94
2022/11/29 12:12:26;;;;;;;;;;;13.00;99.90;;;;;;5060603;28;19916;-93
2022/11/29 12:14:55;;;;;;;;;;;12.70;99.90;;;;;;5054497;28;20041;-87
2022/11/29 12:17:20;;;;;;;;;;;12.50;99.90;;;;;;5056651;28;20021;-78
2022/11/29 12:19:54;;;;;;;;;;;12.30;99.90;;;;;;5053210;28;20006;-80
2022/11/29 12:22:22;;;;;;;;;;;12.20;99.90;;;;;;5062137;28;20284;-76
2022/11/29 12:24:54;;;;;;;;;;;12.00;99.90;;;;;;5062994;28;19924;-75
2022/11/29 12:27:20;;;;;;;;;;;11.90;99.90;;;;;;5058350;28;19927;-78
2022/11/29 12:29:45;;;;;;;;;;;12.00;99.90;;;;;;5062993;28;19916;-76
2022/11/29 12:32:13;;;;;;;;;;;11.70;99.90;;;;;;5065760;28;19921;-79
2022/11/29 12:34:57;;;;;;;;;;;11.70;99.90;;;;;;5064615;28;19920;-80
2022/11/29 12:37:33;;;;;;;;;;;11.60;99.90;;;;;;5063408;28;19924;-79
2022/11/29 12:40:05;;;;;;;;;;;11.50;99.90;;;;;;5076855;28;20364;-76
2022/11/29 12:42:42;;;;;;;;;;;11.40;99.90;;;;;;5066290;28;20036;-76
2022/11/29 12:45:27;;;;;;;;;;;11.30;99.90;;;;;;5063552;28;19925;-77
2022/11/29 12:48:07;;;;;;;;;;;11.10;99.90;;;;;;5056915;28;19925;-76
2022/11/29 12:50:52;;;;;;;;;;;11.00;99.90;;;;;;5063646;28;20379;-75
2022/11/29 12:53:28;;;;;;;;;;;11.00;99.90;;;;;;5060043;28;19921;-76
2022/11/29 12:56:09;;;;;;;;;;;10.90;99.90;;;;;;5059776;28;20376;-76
2022/11/29 12:58:54;;;;;;;;;;;10.80;99.90;;;;;;5058641;28;20023;-73
2022/11/29 13:01:30;;;;;;;;;;;10.80;99.90;;;;;;5062408;28;19928;-75
2022/11/29 13:04:01;;;;;;;;;;;10.80;99.90;;;;;;5058376;28;19921;-74
2022/11/29 13:06:38;;;;;;;;;;;10.70;99.90;;;;;;5055046;28;19966;-76
2022/11/29 13:09:22;;;;;;;;;;;10.70;99.90;;;;;;5053772;28;19929;-74
2022/11/29 13:11:53;;;;;;;;;;;10.70;99.90;;;;;;5058566;28;20035;-80
2022/11/29 13:14:37;;;;;;;;;;;10.50;99.90;;;;;;5059110;28;19927;-77
2022/11/29 13:17:04;;;;;;;;;;;10.50;99.90;;;;;;5056867;28;19950;-78
2022/11/29 13:19:40;;;;;;;;;;;10.40;99.90;;;;;;5060282;28;19925;-80
2022/11/29 13:22:12;;;;;;;;;;;10.50;99.90;;;;;;5059591;28;19921;-71
2022/11/29 13:24:41;;;;;;;;;;;10.40;99.90;;;;;;5061501;28;19927;-74
2022/11/29 13:27:09;;;;;;;;;;;10.40;99.90;;;;;;5060872;28;19924;-78
2022/11/29 13:29:35;;;;;;;;;;;10.40;99.90;;;;;;5059012;28;19925;-76
2022/11/29 13:32:03;;;;;;;;;;;11.20;99.90;;;;;;5060646;28;19943;-78
2022/11/29 13:34:41;;;;;;;;;;;10.40;99.90;;;;;;5074230;28;19928;-74
2022/11/29 13:37:13;;;;;;;;;;;10.50;99.90;;;;;;5059418;28;20014;-79
2022/11/29 13:39:50;;;;;;;;;;;10.40;99.90;;;;;;5062931;28;20406;-75
2022/11/29 13:42:16;;;;;;;;;;;10.30;99.90;;;;;;5059559;28;20018;-75
2022/11/29 13:44:52;;;;;;;;;;;10.30;99.90;;;;;;5073919;28;19970;-78
2022/11/29 13:47:18;;;;;;;;;;;10.20;99.90;;;;;;5069832;28;19920;-77
2022/11/29 13:49:57;;;;;;;;;;;10.20;99.90;;;;;;5061271;28;19916;-79
2022/11/29 13:52:42;;;;;;;;;;;10.20;99.90;;;;;;5060576;28;19924;-79
2022/11/29 13:55:11;;;;;;;;;;;10.10;99.90;;;;;;5061193;28;19920;-81
2022/11/29 13:57:50;;;;;;;;;;;9.90;99.90;;;;;;5053397;28;19928;-78
2022/11/29 14:00:35;;;;;;;;;;;10.10;99.90;;;;;;5061064;28;20277;-78
2022/11/29 14:03:20;;;;;;;;;;;10.00;99.90;;;;;;5052686;28;20364;-76
2022/11/29 14:05:46;;;;;;;;;;;10.00;99.90;;;;;;5061093;28;20007;-77
2022/11/29 14:08:30;;;;;;;;;;;9.90;99.90;;;;;;5065070;28;20406;-69